Time;durP1;ratioP1;P1;durP2;ratioP2;P2;SDS_P1;SDS_P2;PMS_P1;PMS_P2;Temp;Humidity;BMP_temperature;BMP_pressure;BME280_temperature;BME280_humidity;BME280_pressure;Samples;Min_cycle;Max_cycle;Signal;HPM_P1;HPM_P2
2022/09/08 00:00:27;;;;;;;0.00;0.00;;;;;;;;;;5043595;28;20033;-47
2022/09/08 00:02:54;;;;;;;0.15;0.15;;;;;;;;;;5045403;28;20516;-49
2022/09/08 00:05:23;;;;;;;0.30;0.30;;;;;;;;;;5046708;28;20082;-46
2022/09/08 00:07:51;;;;;;;0.10;0.10;;;;;;;;;;5044074;28;20034;-45
2022/09/08 00:10:17;;;;;;;0.00;0.00;;;;;;;;;;5045349;28;20033;-45
2022/09/08 00:12:44;;;;;;;0.00;0.00;;;;;;;;;;5046246;28;20068;-45
2022/09/08 00:15:11;;;;;;;0.20;0.20;;;;;;;;;;5044449;28;20028;-45
2022/09/08 00:17:38;;;;;;;0.20;0.20;;;;;;;;;;5043134;28;20033;-48
2022/09/08 00:20:05;;;;;;;0.10;0.10;;;;;;;;;;5045297;28;20021;-47
2022/09/08 00:22:31;;;;;;;0.30;0.25;;;;;;;;;;5045455;28;20022;-45
2022/09/08 00:24:57;;;;;;;1.02;0.20;;;;;;;;;;5044123;28;20112;-46
2022/09/08 00:27:22;;;;;;;0.05;0.05;;;;;;;;;;5043046;28;20378;-46
2022/09/08 00:29:48;;;;;;;0.20;0.10;;;;;;;;;;5042762;28;20025;-46
2022/09/08 00:32:13;;;;;;;0.10;0.10;;;;;;;;;;5046192;28;20037;-45
2022/09/08 00:34:39;;;;;;;0.03;0.03;;;;;;;;;;5029302;28;20032;-45
2022/09/08 00:37:05;;;;;;;0.38;0.20;;;;;;;;;;5045498;28;20474;-48
2022/09/08 00:39:30;;;;;;;0.10;0.10;;;;;;;;;;5045105;28;20048;-47
2022/09/08 00:41:57;;;;;;;0.35;0.35;;;;;;;;;;5044254;28;20041;-46
2022/09/08 00:44:53;;;;;;;0.20;0.20;;;;;;;;;;5047669;28;20020;-45
2022/09/08 00:47:33;;;;;;;0.30;0.13;;;;;;;;;;5044081;28;20029;-46
2022/09/08 00:50:09;;;;;;;0.00;0.00;;;;;;;;;;5044204;28;20029;-45
2022/09/08 00:53:00;;;;;;;0.20;0.20;;;;;;;;;;5044466;28;20039;-46
2022/09/08 00:55:28;;;;;;;0.75;0.75;;;;;;;;;;5042840;28;20044;-45
2022/09/08 00:57:54;;;;;;;0.10;0.10;;;;;;;;;;5054449;28;20077;-45
2022/09/08 01:00:21;;;;;;;0.68;0.68;;;;;;;;;;5054906;28;20041;-45
2022/09/08 01:02:47;;;;;;;0.10;0.10;;;;;;;;;;5053106;28;20049;-45
2022/09/08 01:05:35;;;;;;;0.65;0.35;;;;;;;;;;5051301;28;20020;-45
2022/09/08 01:14:15;;;;;;;0.00;0.00;;;;;;;;;;5054718;28;20031;-48
2022/09/08 01:16:42;;;;;;;0.00;0.00;;;;;;;;;;5052031;28;20025;-45
2022/09/08 01:19:31;;;;;;;0.00;0.00;;;;;;;;;;5051289;28;20037;-47
2022/09/08 01:22:40;;;;;;;0.10;0.10;;;;;;;;;;5053801;28;20029;-47
2022/09/08 01:25:05;;;;;;;1.65;0.13;;;;;;;;;;4966656;28;20455;-46
2022/09/08 01:27:33;;;;;;;0.10;0.10;;;;;;;;;;4971321;28;20045;-46
2022/09/08 01:30:06;;;;;;;0.00;0.00;;;;;;;;;;4966838;28;20633;-45
2022/09/08 01:32:35;;;;;;;0.10;0.10;;;;;;;;;;4965582;28;20218;-45
2022/09/08 01:35:01;;;;;;;2.90;0.10;;;;;;;;;;4966434;28;20133;-45
2022/09/08 01:37:27;;;;;;;0.10;0.10;;;;;;;;;;4964931;28;20137;-46
2022/09/08 01:39:53;;;;;;;0.13;0.13;;;;;;;;;;4967037;28;20031;-47
2022/09/08 01:42:19;;;;;;;0.75;0.35;;;;;;;;;;4967967;28;20046;-42
2022/09/08 01:44:45;;;;;;;0.10;0.10;;;;;;;;;;4969549;28;20066;-45
2022/09/08 01:47:11;;;;;;;0.00;0.00;;;;;;;;;;4969305;28;20060;-45
2022/09/08 01:49:36;;;;;;;0.47;0.47;;;;;;;;;;4968344;28;20512;-44
2022/09/08 01:52:03;;;;;;;0.00;0.00;;;;;;;;;;4969403;28;20755;-44
2022/09/08 01:54:28;;;;;;;7.13;0.20;;;;;;;;;;4968520;28;20763;-44
2022/09/08 01:56:55;;;;;;;0.10;0.10;;;;;;;;;;4968170;28;20046;-44
2022/09/08 01:59:21;;;;;;;0.00;0.00;;;;;;;;;;4969083;28;20085;-44
2022/09/08 02:01:47;;;;;;;0.00;0.00;;;;;;;;;;5034035;28;20489;-44
2022/09/08 02:04:13;;;;;;;0.00;0.00;;;;;;;;;;5058265;28;20033;-44
2022/09/08 02:06:38;;;;;;;0.00;0.00;;;;;;;;;;5058705;28;20098;-47
2022/09/08 02:09:04;;;;;;;0.05;0.05;;;;;;;;;;5055795;28;20029;-44
2022/09/08 02:11:30;;;;;;;0.10;0.10;;;;;;;;;;5059189;28;20427;-44
2022/09/08 02:13:55;;;;;;;0.50;0.50;;;;;;;;;;5058894;28;20063;-46
2022/09/08 02:16:21;;;;;;;0.38;0.38;;;;;;;;;;5055495;28;20086;-47
2022/09/08 02:18:46;;;;;;;0.10;0.10;;;;;;;;;;5061777;28;20168;-44
2022/09/08 02:21:17;;;;;;;0.10;0.10;;;;;;;;;;5057543;28;20078;-44
2022/09/08 02:23:45;;;;;;;0.13;0.13;;;;;;;;;;5059710;28;20082;-44
2022/09/08 02:26:20;;;;;;;0.70;0.40;;;;;;;;;;5057787;28;20041;-45
2022/09/08 02:28:48;;;;;;;0.10;0.10;;;;;;;;;;5056764;28;20029;-45
2022/09/08 02:31:14;;;;;;;0.00;0.00;;;;;;;;;;5056381;28;20107;-44
2022/09/08 02:33:40;;;;;;;3.40;0.15;;;;;;;;;;5056278;28;20045;-46
2022/09/08 02:36:06;;;;;;;0.10;0.10;;;;;;;;;;5061179;28;20074;-44
2022/09/08 02:38:32;;;;;;;0.00;0.00;;;;;;;;;;5055722;28;20028;-44
2022/09/08 02:40:59;;;;;;;0.10;0.10;;;;;;;;;;5058149;28;20473;-44
2022/09/08 02:43:25;;;;;;;0.00;0.00;;;;;;;;;;5055899;28;20074;-47
2022/09/08 02:45:51;;;;;;;0.00;0.00;;;;;;;;;;5059905;28;20025;-45
2022/09/08 02:48:16;;;;;;;0.00;0.00;;;;;;;;;;5058612;28;20116;-45
2022/09/08 02:50:42;;;;;;;0.10;0.10;;;;;;;;;;5055539;28;20064;-45
2022/09/08 02:53:09;;;;;;;0.00;0.00;;;;;;;;;;5058474;28;20074;-44
2022/09/08 02:55:39;;;;;;;0.22;0.22;;;;;;;;;;5057664;28;20082;-44
2022/09/08 02:58:07;;;;;;;0.00;0.00;;;;;;;;;;5044525;28;20052;-44
2022/09/08 03:00:34;;;;;;;0.00;0.00;;;;;;;;;;5045939;28;20033;-44
2022/09/08 03:03:00;;;;;;;0.22;0.20;;;;;;;;;;5049209;28;20021;-43
2022/09/08 03:05:26;;;;;;;0.00;0.00;;;;;;;;;;5045046;28;20033;-45
2022/09/08 03:07:51;;;;;;;0.00;0.00;;;;;;;;;;5046158;28;20099;-46
2022/09/08 03:10:23;;;;;;;0.00;0.00;;;;;;;;;;5046878;28;20018;-45
2022/09/08 03:12:54;;;;;;;2.53;0.40;;;;;;;;;;5045416;28;20032;-45
2022/09/08 03:15:21;;;;;;;0.52;0.52;;;;;;;;;;5046079;28;20505;-46
2022/09/08 03:17:47;;;;;;;1.95;0.77;;;;;;;;;;5042066;28;20033;-46
2022/09/08 03:20:14;;;;;;;2.28;1.05;;;;;;;;;;5044816;28;20539;-46
2022/09/08 03:22:40;;;;;;;1.55;1.20;;;;;;;;;;5047083;28;20029;-45
2022/09/08 03:25:06;;;;;;;3.42;1.08;;;;;;;;;;5047765;28;20503;-45
2022/09/08 03:27:32;;;;;;;3.15;1.02;;;;;;;;;;5045216;28;20052;-44
2022/09/08 03:29:57;;;;;;;2.08;1.10;;;;;;;;;;5045966;28;20114;-45
2022/09/08 03:32:23;;;;;;;1.65;1.17;;;;;;;;;;5044212;28;20037;-44
2022/09/08 03:34:49;;;;;;;1.25;1.10;;;;;;;;;;5049841;28;20052;-44
2022/09/08 03:37:15;;;;;;;1.75;1.10;;;;;;;;;;5046143;28;20110;-44
2022/09/08 03:39:41;;;;;;;2.15;1.23;;;;;;;;;;5044317;28;20049;-44
2022/09/08 03:42:07;;;;;;;1.85;0.90;;;;;;;;;;5046508;28;20112;-46
2022/09/08 03:44:33;;;;;;;1.48;1.08;;;;;;;;;;5045499;28;20025;-44
2022/09/08 03:46:59;;;;;;;1.63;0.93;;;;;;;;;;5043882;28;20037;-44
2022/09/08 03:49:25;;;;;;;4.15;1.00;;;;;;;;;;5047004;28;20483;-44
2022/09/08 03:51:51;;;;;;;1.25;0.95;;;;;;;;;;5042092;28;20031;-44
2022/09/08 03:57:00;;;;;;;1.85;1.33;;;;;;;;;;5046429;28;20167;-44
2022/09/08 03:59:26;;;;;;;2.30;1.27;;;;;;;;;;5047581;28;20541;-45
2022/09/08 04:01:53;;;;;;;1.55;1.08;;;;;;;;;;5044493;28;20032;-43
2022/09/08 04:04:23;;;;;;;0.90;0.90;;;;;;;;;;5046455;28;20032;-45
2022/09/08 04:06:49;;;;;;;6.28;1.13;;;;;;;;;;5047276;28;20501;-45
2022/09/08 04:09:16;;;;;;;4.05;1.75;;;;;;;;;;5044494;28;20043;-44
2022/09/08 04:11:41;;;;;;;3.03;1.25;;;;;;;;;;5043471;28;20039;-44
2022/09/08 04:14:07;;;;;;;2.85;1.30;;;;;;;;;;5044358;28;20064;-44
2022/09/08 04:16:34;;;;;;;4.60;1.65;;;;;;;;;;5045408;28;20049;-44
2022/09/08 04:18:59;;;;;;;2.60;1.17;;;;;;;;;;5048117;28;20496;-42
2022/09/08 04:21:25;;;;;;;1.83;1.00;;;;;;;;;;5043222;28;20064;-46
2022/09/08 04:23:50;;;;;;;4.28;1.10;;;;;;;;;;5043607;28;20035;-44
2022/09/08 04:26:16;;;;;;;5.00;1.42;;;;;;;;;;5044608;28;20102;-44
2022/09/08 04:28:42;;;;;;;3.30;1.45;;;;;;;;;;5044863;28;20041;-44
2022/09/08 04:31:11;;;;;;;2.83;1.30;;;;;;;;;;5044926;28;20025;-44
2022/09/08 04:33:37;;;;;;;2.65;1.30;;;;;;;;;;5045424;28;20021;-45
2022/09/08 04:36:12;;;;;;;3.00;1.00;;;;;;;;;;5045626;28;20552;-45
2022/09/08 04:38:38;;;;;;;4.32;1.30;;;;;;;;;;5047618;28;20028;-45
2022/09/08 04:41:06;;;;;;;4.90;1.40;;;;;;;;;;5044684;28;20025;-44
2022/09/08 04:43:33;;;;;;;3.88;1.30;;;;;;;;;;5042405;28;20026;-44
2022/09/08 04:46:08;;;;;;;1.70;1.45;;;;;;;;;;5044717;28;20062;-44
2022/09/08 04:48:35;;;;;;;5.00;1.30;;;;;;;;;;5041158;28;20033;-43
2022/09/08 04:51:02;;;;;;;2.33;1.02;;;;;;;;;;5043943;28;20013;-44
2022/09/08 04:53:30;;;;;;;4.72;1.10;;;;;;;;;;5046870;28;20029;-44
2022/09/08 04:55:56;;;;;;;1.35;1.20;;;;;;;;;;5046024;28;20076;-43
2022/09/08 04:58:22;;;;;;;4.45;1.10;;;;;;;;;;5054088;28;20432;-44
2022/09/08 05:00:48;;;;;;;3.17;1.40;;;;;;;;;;5055290;28;20034;-44
2022/09/08 05:03:14;;;;;;;1.92;1.08;;;;;;;;;;5057287;28;20067;-44
2022/09/08 05:05:40;;;;;;;4.80;1.15;;;;;;;;;;5050328;28;20872;-45
2022/09/08 05:08:05;;;;;;;2.20;1.25;;;;;;;;;;5056399;28;20032;-44
2022/09/08 05:10:32;;;;;;;3.75;1.80;;;;;;;;;;5056331;28;20048;-45
2022/09/08 05:12:58;;;;;;;8.52;1.40;;;;;;;;;;5056930;28;20025;-44
2022/09/08 05:15:25;;;;;;;6.47;1.60;;;;;;;;;;5059623;28;20094;-43
2022/09/08 05:17:51;;;;;;;3.63;1.63;;;;;;;;;;5052603;28;20036;-45
2022/09/08 05:20:17;;;;;;;3.58;1.60;;;;;;;;;;5055970;28;20029;-44
2022/09/08 05:22:43;;;;;;;10.25;1.77;;;;;;;;;;5051007;28;20048;-44
2022/09/08 05:25:09;;;;;;;2.42;1.80;;;;;;;;;;5051307;28;20029;-45
2022/09/08 05:27:35;;;;;;;9.20;3.67;;;;;;;;;;5046101;28;20035;-44
2022/09/08 05:30:00;;;;;;;18.52;10.27;;;;;;;;;;5057416;28;20090;-43
2022/09/08 05:32:26;;;;;;;35.40;20.95;;;;;;;;;;5056815;28;20392;-44
2022/09/08 05:34:52;;;;;;;73.32;48.30;;;;;;;;;;5042864;28;20032;-44
2022/09/08 05:37:18;;;;;;;91.18;63.80;;;;;;;;;;5051698;28;20103;-43
2022/09/08 05:39:46;;;;;;;67.30;40.92;;;;;;;;;;5048143;28;20055;-44
2022/09/08 05:42:11;;;;;;;61.65;40.10;;;;;;;;;;5040464;28;20037;-45
2022/09/08 05:44:37;;;;;;;72.15;43.20;;;;;;;;;;5048494;28;20096;-44
2022/09/08 05:47:03;;;;;;;81.57;45.70;;;;;;;;;;5043204;28;20057;-45
2022/09/08 05:49:28;;;;;;;61.78;35.38;;;;;;;;;;5051539;28;20029;-44
2022/09/08 05:51:54;;;;;;;61.13;39.72;;;;;;;;;;5054366;28;20056;-44
2022/09/08 05:54:21;;;;;;;76.82;44.85;;;;;;;;;;5052767;28;20094;-43
2022/09/08 05:56:46;;;;;;;66.35;42.33;;;;;;;;;;5048567;28;20045;-44
2022/09/08 05:59:12;;;;;;;69.68;41.08;;;;;;;;;;5048024;28;20029;-44
2022/09/08 06:01:38;;;;;;;66.93;39.83;;;;;;;;;;5040479;28;20059;-46
2022/09/08 06:04:04;;;;;;;68.05;40.90;;;;;;;;;;5042754;28;21834;-44
2022/09/08 06:06:31;;;;;;;72.18;40.97;;;;;;;;;;5043086;28;20445;-45
2022/09/08 06:08:59;;;;;;;67.57;41.60;;;;;;;;;;5044544;28;20041;-44
2022/09/08 06:11:26;;;;;;;73.82;44.78;;;;;;;;;;5043002;28;20440;-46
2022/09/08 06:13:52;;;;;;;72.15;48.22;;;;;;;;;;5036063;28;20051;-44
2022/09/08 06:16:19;;;;;;;79.63;50.55;;;;;;;;;;5045161;28;20033;-44
2022/09/08 06:18:46;;;;;;;46.58;26.15;;;;;;;;;;5043086;28;20083;-44
2022/09/08 06:21:17;;;;;;;45.67;24.45;;;;;;;;;;5042399;28;20029;-44
2022/09/08 06:23:43;;;;;;;55.63;26.80;;;;;;;;;;5045521;28;20032;-44
2022/09/08 06:26:15;;;;;;;44.20;29.05;;;;;;;;;;5041971;28;20278;-46
2022/09/08 06:29:05;;;;;;;53.65;34.95;;;;;;;;;;5044907;28;20029;-44
2022/09/08 06:31:34;;;;;;;49.60;28.77;;;;;;;;;;5036135;28;20036;-44
2022/09/08 06:34:09;;;;;;;46.22;23.35;;;;;;;;;;5043553;28;20041;-44
2022/09/08 06:36:53;;;;;;;34.30;22.13;;;;;;;;;;5039598;28;20355;-44
2022/09/08 06:39:50;;;;;;;44.97;26.48;;;;;;;;;;5038801;28;20037;-44
2022/09/08 06:42:20;;;;;;;28.65;14.35;;;;;;;;;;4967357;28;20038;-44
2022/09/08 06:44:51;;;;;;;31.42;15.60;;;;;;;;;;4961138;28;20514;-45
2022/09/08 06:47:21;;;;;;;30.95;14.90;;;;;;;;;;4968588;28;20527;-45
2022/09/08 06:49:50;;;;;;;25.38;13.48;;;;;;;;;;4963134;28;20117;-48
2022/09/08 06:52:38;;;;;;;12.77;5.55;;;;;;;;;;4966439;28;20046;-48
2022/09/08 06:55:27;;;;;;;8.60;3.15;;;;;;;;;;4964118;28;20033;-44
2022/09/08 06:58:13;;;;;;;8.30;3.33;;;;;;;;;;4962505;28;20056;-44
2022/09/08 07:01:18;;;;;;;8.95;2.83;;;;;;;;;;4966975;28;20045;-44
2022/09/08 07:03:52;;;;;;;5.15;2.22;;;;;;;;;;4960411;28;20582;-47
2022/09/08 07:06:21;;;;;;;3.95;1.60;;;;;;;;;;4964988;28;20242;-44
2022/09/08 07:09:08;;;;;;;5.38;1.20;;;;;;;;;;4968242;28;20327;-44
2022/09/08 07:11:52;;;;;;;5.25;1.20;;;;;;;;;;4965470;28;20039;-45
2022/09/08 07:14:35;;;;;;;5.88;1.52;;;;;;;;;;4966892;28;20416;-44
2022/09/08 07:17:29;;;;;;;1.27;1.13;;;;;;;;;;4970050;28;20396;-44
2022/09/08 07:19:56;;;;;;;2.42;1.10;;;;;;;;;;5041895;28;20052;-44
2022/09/08 07:22:44;;;;;;;3.25;1.05;;;;;;;;;;5039904;28;20581;-44
2022/09/08 07:25:48;;;;;;;2.58;1.20;;;;;;;;;;5039364;28;20056;-46
2022/09/08 07:28:26;;;;;;;4.28;1.33;;;;;;;;;;5034299;28;20103;-47
2022/09/08 07:30:59;;;;;;;2.55;1.30;;;;;;;;;;5038292;28;20033;-48
2022/09/08 07:33:33;;;;;;;3.45;1.10;;;;;;;;;;5036305;28;20029;-46
2022/09/08 07:36:10;;;;;;;3.13;1.33;;;;;;;;;;5037304;28;20021;-44
2022/09/08 07:38:48;;;;;;;5.60;1.35;;;;;;;;;;5036998;28;20061;-45
2022/09/08 07:41:52;;;;;;;3.50;1.40;;;;;;;;;;5042687;28;20028;-44
2022/09/08 07:44:19;;;;;;;3.00;1.48;;;;;;;;;;5040825;28;20036;-47
2022/09/08 07:47:55;;;;;;;2.55;1.58;;;;;;;;;;5038276;28;20047;-47
2022/09/08 07:50:54;;;;;;;3.53;1.20;;;;;;;;;;4928629;29;20145;-46
2022/09/08 07:53:35;;;;;;;3.88;1.30;;;;;;;;;;4931079;29;20542;-44
2022/09/08 07:56:39;;;;;;;6.82;1.83;;;;;;;;;;4924559;29;20480;-43
2022/09/08 07:59:31;;;;;;;2.78;1.20;;;;;;;;;;4889110;29;20049;-44
2022/09/08 08:02:17;;;;;;;2.60;1.60;;;;;;;;;;4894343;29;20045;-45
2022/09/08 08:05:18;;;;;;;5.93;1.40;;;;;;;;;;4895765;29;20035;-44
2022/09/08 08:08:02;;;;;;;2.83;1.10;;;;;;;;;;4856825;29;22003;-44
2022/09/08 08:10:39;;;;;;;3.53;1.10;;;;;;;;;;4857703;29;20132;-45
2022/09/08 08:13:28;;;;;;;2.30;1.25;;;;;;;;;;4851544;29;20051;-48
2022/09/08 08:16:09;;;;;;;4.55;1.20;;;;;;;;;;4838874;29;20725;-44
2022/09/08 08:18:45;;;;;;;3.30;1.33;;;;;;;;;;4855057;29;20041;-44
2022/09/08 08:21:17;;;;;;;3.08;1.30;;;;;;;;;;4859308;29;20037;-45
2022/09/08 08:24:00;;;;;;;6.68;1.50;;;;;;;;;;4870262;29;20041;-44
2022/09/08 08:26:26;;;;;;;4.97;1.30;;;;;;;;;;4868966;29;20724;-46
2022/09/08 08:29:16;;;;;;;3.20;1.63;;;;;;;;;;4869064;29;20100;-46
2022/09/08 08:31:50;;;;;;;3.38;2.15;;;;;;;;;;4852778;29;20576;-46
2022/09/08 08:34:27;;;;;;;6.22;1.63;;;;;;;;;;4849503;29;20101;-46
2022/09/08 08:36:58;;;;;;;3.38;1.50;;;;;;;;;;4885277;29;20047;-45
2022/09/08 08:39:24;;;;;;;3.97;1.98;;;;;;;;;;4885933;29;20051;-44
2022/09/08 08:42:05;;;;;;;2.00;1.23;;;;;;;;;;4935540;28;20035;-44
2022/09/08 08:45:00;;;;;;;2.05;1.30;;;;;;;;;;4977834;28;20051;-44
2022/09/08 08:48:03;;;;;;;7.32;1.40;;;;;;;;;;4980566;28;20043;-47
2022/09/08 08:50:53;;;;;;;5.13;1.33;;;;;;;;;;4975379;28;20546;-45
2022/09/08 08:54:03;;;;;;;2.70;1.60;;;;;;;;;;4982580;28;20034;-45
2022/09/08 08:56:37;;;;;;;4.85;1.40;;;;;;;;;;4962004;28;20045;-46
2022/09/08 08:59:40;;;;;;;3.47;1.60;;;;;;;;;;4954680;28;20047;-47
2022/09/08 09:02:20;;;;;;;5.40;2.25;;;;;;;;;;4969815;28;20492;-45
2022/09/08 09:05:06;;;;;;;3.10;1.90;;;;;;;;;;4966968;28;20096;-44
2022/09/08 09:07:55;;;;;;;2.50;1.55;;;;;;;;;;4966480;28;20705;-44
2022/09/08 09:10:49;;;;;;;10.00;2.70;;;;;;;;;;4953602;28;20087;-42
2022/09/08 09:13:17;;;;;;;8.10;1.88;;;;;;;;;;4946568;28;20578;-47
2022/09/08 09:15:45;;;;;;;2.35;1.83;;;;;;;;;;4944011;28;20085;-46
2022/09/08 09:18:41;;;;;;;2.63;1.67;;;;;;;;;;4946282;28;20046;-45
2022/09/08 09:21:19;;;;;;;5.78;1.92;;;;;;;;;;4944584;28;20078;-45
2022/09/08 09:24:08;;;;;;;4.18;1.70;;;;;;;;;;4947133;28;21100;-45
2022/09/08 09:26:35;;;;;;;3.05;1.80;;;;;;;;;;4951038;28;20864;-44
2022/09/08 09:29:00;;;;;;;2.50;1.75;;;;;;;;;;4948981;28;20122;-43
2022/09/08 09:31:53;;;;;;;3.22;1.80;;;;;;;;;;5006683;28;20117;-48
2022/09/08 09:34:18;;;;;;;5.18;1.92;;;;;;;;;;5025820;28;20068;-44
2022/09/08 09:37:08;;;;;;;6.03;1.95;;;;;;;;;;5028632;28;20065;-45
2022/09/08 09:39:51;;;;;;;3.45;1.92;;;;;;;;;;5023737;28;20029;-45
2022/09/08 09:42:37;;;;;;;2.33;1.90;;;;;;;;;;5014097;28;20040;-45
2022/09/08 09:45:15;;;;;;;4.85;2.05;;;;;;;;;;5019155;28;20037;-49
2022/09/08 09:47:52;;;;;;;4.18;2.33;;;;;;;;;;5018949;28;20040;-43
2022/09/08 09:50:53;;;;;;;6.45;2.90;;;;;;;;;;5024967;28;20029;-45
2022/09/08 09:53:31;;;;;;;5.00;3.15;;;;;;;;;;5024437;28;20032;-45
2022/09/08 09:56:23;;;;;;;6.10;2.72;;;;;;;;;;5024607;28;20068;-45
2022/09/08 09:59:24;;;;;;;5.20;2.65;;;;;;;;;;5042748;28;20036;-44
2022/09/08 10:02:18;;;;;;;5.50;2.50;;;;;;;;;;5044151;28;20041;-49
2022/09/08 10:05:05;;;;;;;7.00;2.22;;;;;;;;;;4987977;28;20051;-46
2022/09/08 10:08:05;;;;;;;8.05;2.08;;;;;;;;;;4987992;28;20530;-47
2022/09/08 10:10:42;;;;;;;9.65;2.00;;;;;;;;;;4985901;28;20046;-46
2022/09/08 10:13:36;;;;;;;5.22;2.47;;;;;;;;;;4989829;28;20038;-44
2022/09/08 10:16:36;;;;;;;4.28;1.95;;;;;;;;;;4992646;28;20045;-48
2022/09/08 10:19:17;;;;;;;4.28;2.10;;;;;;;;;;4997145;28;20041;-45
2022/09/08 10:22:23;;;;;;;2.63;1.83;;;;;;;;;;4988484;28;20049;-44
2022/09/08 10:25:06;;;;;;;3.50;1.90;;;;;;;;;;4990526;28;20026;-44
2022/09/08 10:28:03;;;;;;;4.90;2.28;;;;;;;;;;4989883;28;20034;-45
2022/09/08 10:30:59;;;;;;;4.72;3.30;;;;;;;;;;4985175;28;20044;-43
2022/09/08 10:33:59;;;;;;;5.95;4.30;;;;;;;;;;4986695;28;20858;-47
2022/09/08 10:36:48;;;;;;;3.67;1.55;;;;;;;;;;4989333;28;20185;-44
2022/09/08 10:39:38;;;;;;;6.82;1.77;;;;;;;;;;4989585;28;20027;-45
2022/09/08 10:42:41;;;;;;;4.13;1.50;;;;;;;;;;5017604;28;20448;-44
2022/09/08 10:45:19;;;;;;;10.70;2.85;;;;;;;;;;5026399;28;20574;-44
2022/09/08 10:48:19;;;;;;;5.57;1.90;;;;;;;;;;5042684;28;20055;-44
2022/09/08 10:51:02;;;;;;;3.75;1.85;;;;;;;;;;5030029;28;20043;-45
2022/09/08 10:53:58;;;;;;;7.03;2.13;;;;;;;;;;5040629;28;20127;-44
2022/09/08 10:56:28;;;;;;;3.67;1.52;;;;;;;;;;5038660;28;20603;-44
2022/09/08 10:59:31;;;;;;;3.10;1.65;;;;;;;;;;5025840;28;20025;-43
2022/09/08 11:02:09;;;;;;;2.05;1.30;;;;;;;;;;5023155;28;20040;-44
2022/09/08 11:04:56;;;;;;;5.70;1.55;;;;;;;;;;5026104;28;20030;-43
2022/09/08 11:07:26;;;;;;;3.15;1.38;;;;;;;;;;5024550;28;20041;-43
2022/09/08 11:10:25;;;;;;;8.70;1.52;;;;;;;;;;4975020;28;20406;-43
2022/09/08 11:13:35;;;;;;;3.58;1.55;;;;;;;;;;4963530;28;160473;-43
2022/09/08 11:16:12;;;;;;;1.85;1.73;;;;;;;;;;4995813;28;31364;-47
2022/09/08 11:18:44;;;;;;;2.42;1.23;;;;;;;;;;4998607;28;20030;-43
2022/09/08 11:21:25;;;;;;;10.50;1.20;;;;;;;;;;4989092;28;20034;-43
2022/09/08 11:24:20;;;;;;;7.22;1.60;;;;;;;;;;4995738;28;20084;-43
2022/09/08 11:27:20;;;;;;;4.22;1.30;;;;;;;;;;5001896;28;20026;-43
2022/09/08 11:30:11;;;;;;;2.58;1.38;;;;;;;;;;4946270;28;20042;-46
2022/09/08 11:33:09;;;;;;;3.42;1.33;;;;;;;;;;4948205;28;20035;-43
2022/09/08 11:35:51;;;;;;;1.77;1.30;;;;;;;;;;4938412;28;20600;-44
2022/09/08 11:38:29;;;;;;;3.20;1.42;;;;;;;;;;4944373;28;20034;-44
2022/09/08 11:41:06;;;;;;;7.95;1.52;;;;;;;;;;4948703;28;20118;-44
2022/09/08 11:43:58;;;;;;;2.70;1.35;;;;;;;;;;4948339;28;20532;-43
2022/09/08 11:46:24;;;;;;;;;;;;;;;;;;4948866;28;20146;-44
2022/09/08 11:48:52;;;;;;;5.13;1.40;;;;;;;;;;4938966;28;20005;-44
2022/09/08 11:51:33;;;;;;;3.13;1.27;;;;;;;;;;4943237;28;20135;-46
2022/09/08 11:54:14;;;;;;;3.00;1.30;;;;;;;;;;4942099;28;20047;-43
2022/09/08 11:57:13;;;;;;;4.30;1.45;;;;;;;;;;4937345;28;20046;-48
2022/09/08 12:00:21;;;;;;;2.38;1.30;;;;;;;;;;4966503;28;20045;-45
2022/09/08 12:03:26;;;;;;;1.83;1.30;;;;;;;;;;4905799;29;20496;-44
2022/09/08 12:06:24;;;;;;;3.17;1.77;;;;;;;;;;4914388;29;20040;-46
2022/09/08 12:08:50;;;;;;;2.67;1.50;;;;;;;;;;4940247;28;20038;-47
2022/09/08 12:11:54;;;;;;;2.63;1.38;;;;;;;;;;4943015;28;20101;-45
2022/09/08 12:14:48;;;;;;;4.03;1.80;;;;;;;;;;4937983;28;20177;-44
2022/09/08 12:17:35;;;;;;;3.42;1.52;;;;;;;;;;4941285;28;20793;-45
2022/09/08 12:20:13;;;;;;;1.90;1.40;;;;;;;;;;4941197;28;20570;-44
2022/09/08 12:22:46;;;;;;;3.30;1.60;;;;;;;;;;4939942;28;20970;-45
2022/09/08 12:25:31;;;;;;;1.88;1.50;;;;;;;;;;4948684;28;20468;-44
2022/09/08 12:28:10;;;;;;;5.65;1.65;;;;;;;;;;4944269;28;20482;-45
2022/09/08 12:31:05;;;;;;;3.75;1.95;;;;;;;;;;4943704;28;20480;-44
2022/09/08 12:33:44;;;;;;;8.63;1.40;;;;;;;;;;4945895;28;20043;-44
2022/09/08 12:36:18;;;;;;;1.40;1.30;;;;;;;;;;4945682;28;20186;-44
2022/09/08 12:38:47;;;;;;;5.43;1.60;;;;;;;;;;4957082;28;20053;-44
2022/09/08 12:41:39;;;;;;;3.78;1.63;;;;;;;;;;5024420;28;20476;-44
2022/09/08 12:44:16;;;;;;;;;;;;;;;;;;5022851;28;20048;-44
2022/09/08 12:46:45;;;;;;;6.50;1.40;;;;;;;;;;5023346;28;19928;-43
2022/09/08 12:49:39;;;;;;;1.85;1.15;;;;;;;;;;5025272;28;20032;-47
2022/09/08 12:52:14;;;;;;;2.40;1.50;;;;;;;;;;5023981;28;20079;-46
2022/09/08 12:54:59;;;;;;;2.78;1.50;;;;;;;;;;5020735;28;20030;-45
2022/09/08 12:57:49;;;;;;;3.72;1.35;;;;;;;;;;5020248;28;20048;-46
2022/09/08 13:00:18;;;;;;;4.57;2.10;;;;;;;;;;5022031;28;20033;-43
2022/09/08 13:02:49;;;;;;;3.13;1.52;;;;;;;;;;5023142;28;20033;-43
2022/09/08 13:05:18;;;;;;;1.65;1.45;;;;;;;;;;5018527;28;20351;-45
2022/09/08 13:07:53;;;;;;;2.45;1.40;;;;;;;;;;5014818;28;20064;-45
2022/09/08 13:10:40;;;;;;;2.55;1.42;;;;;;;;;;5019040;28;20083;-47
2022/09/08 13:13:23;;;;;;;3.95;1.60;;;;;;;;;;5019987;28;20042;-46
2022/09/08 13:16:08;;;;;;;3.85;1.35;;;;;;;;;;5021899;28;20121;-44
2022/09/08 13:18:53;;;;;;;2.58;1.38;;;;;;;;;;5025072;28;20049;-47
2022/09/08 13:21:28;;;;;;;3.72;1.50;;;;;;;;;;5023615;28;20056;-39
2022/09/08 13:23:59;;;;;;;4.13;1.92;;;;;;;;;;5016653;28;20084;-44
2022/09/08 13:26:53;;;;;;;1.85;1.23;;;;;;;;;;5018834;28;20099;-45
2022/09/08 13:29:34;;;;;;;2.50;1.23;;;;;;;;;;5017687;28;20100;-43
2022/09/08 13:32:15;;;;;;;2.33;1.20;;;;;;;;;;5018314;28;20025;-47
2022/09/08 13:35:00;;;;;;;2.17;1.07;;;;;;;;;;5026740;28;20041;-46
2022/09/08 13:37:56;;;;;;;1.30;0.82;;;;;;;;;;5027994;28;20041;-43
2022/09/08 13:40:27;;;;;;;0.90;0.80;;;;;;;;;;5028235;28;20037;-49
2022/09/08 13:43:15;;;;;;;3.95;1.10;;;;;;;;;;5021415;28;20538;-46
2022/09/08 13:45:47;;;;;;;1.65;0.82;;;;;;;;;;5016949;28;20044;-44
2022/09/08 13:48:34;;;;;;;4.03;0.80;;;;;;;;;;5026278;28;20389;-45
2022/09/08 13:51:32;;;;;;;1.85;0.88;;;;;;;;;;5014294;28;20037;-46
2022/09/08 13:54:33;;;;;;;1.55;0.95;;;;;;;;;;5021921;28;20033;-44
2022/09/08 13:57:09;;;;;;;4.57;1.20;;;;;;;;;;4967023;28;20186;-45
2022/09/08 13:59:35;;;;;;;3.20;1.38;;;;;;;;;;4968329;28;20057;-45
2022/09/08 14:02:21;;;;;;;2.22;1.10;;;;;;;;;;4968946;28;20488;-46
2022/09/08 14:05:11;;;;;;;2.65;0.95;;;;;;;;;;4966534;28;20069;-44
2022/09/08 14:07:48;;;;;;;2.30;0.95;;;;;;;;;;4968728;28;20042;-43
2022/09/08 14:10:25;;;;;;;3.40;1.10;;;;;;;;;;4962520;28;20041;-44
2022/09/08 14:12:53;;;;;;;2.45;1.13;;;;;;;;;;4967586;28;20035;-45
2022/09/08 14:15:28;;;;;;;4.57;1.02;;;;;;;;;;4969268;28;20045;-44
2022/09/08 14:18:13;;;;;;;4.22;1.10;;;;;;;;;;4967577;28;20050;-47
2022/09/08 14:20:49;;;;;;;3.78;1.45;;;;;;;;;;4966556;28;20123;-45
2022/09/08 14:23:30;;;;;;;1.65;1.02;;;;;;;;;;4966539;28;20186;-44
2022/09/08 14:26:22;;;;;;;3.10;1.10;;;;;;;;;;4965828;28;20465;-43
2022/09/08 14:29:05;;;;;;;1.25;0.90;;;;;;;;;;4965080;28;20035;-44
2022/09/08 14:31:58;;;;;;;0.85;0.85;;;;;;;;;;4965880;28;20035;-45
2022/09/08 14:35:21;;;;;;;2.53;1.30;;;;;;;;;;5006927;28;20044;-45
2022/09/08 14:38:01;;;;;;;3.28;1.20;;;;;;;;;;5023442;28;20034;-45
2022/09/08 14:40:36;;;;;;;2.00;1.13;;;;;;;;;;5027992;28;20064;-45
2022/09/08 14:43:20;;;;;;;1.92;1.08;;;;;;;;;;5025887;28;20112;-44
2022/09/08 14:46:05;;;;;;;2.05;0.90;;;;;;;;;;5027067;28;20532;-46
2022/09/08 14:48:54;;;;;;;1.35;0.98;;;;;;;;;;5025846;28;20122;-47
2022/09/08 14:51:25;;;;;;;1.50;1.08;;;;;;;;;;5023356;28;20045;-44
2022/09/08 14:53:56;;;;;;;5.85;1.02;;;;;;;;;;5024697;28;20033;-45
2022/09/08 14:56:31;;;;;;;3.72;1.10;;;;;;;;;;5023513;28;20049;-45
2022/09/08 14:59:29;;;;;;;2.13;1.08;;;;;;;;;;5023531;28;20466;-44
2022/09/08 15:02:01;;;;;;;2.88;0.90;;;;;;;;;;5021326;28;20508;-46
2022/09/08 15:04:36;;;;;;;1.63;1.15;;;;;;;;;;5007643;28;20060;-44
2022/09/08 15:07:18;;;;;;;3.25;1.10;;;;;;;;;;5025828;28;20037;-44
2022/09/08 15:09:48;;;;;;;;;;;;;;;;;;5023820;28;20068;-45
2022/09/08 15:12:37;;;;;;;2.47;1.00;;;;;;;;;;5023111;28;19921;-44
2022/09/08 15:15:30;;;;;;;2.78;1.27;;;;;;;;;;5021467;28;20036;-49
2022/09/08 15:17:59;;;;;;;3.45;1.27;;;;;;;;;;5016997;28;20065;-44
2022/09/08 15:20:32;;;;;;;2.53;0.80;;;;;;;;;;5023587;28;20033;-46
2022/09/08 15:23:06;;;;;;;1.98;1.30;;;;;;;;;;5029372;28;20075;-44
2022/09/08 15:25:53;;;;;;;4.25;1.60;;;;;;;;;;5022686;28;20061;-45
2022/09/08 15:28:23;;;;;;;3.00;1.30;;;;;;;;;;5021495;28;20107;-45
2022/09/08 15:31:11;;;;;;;5.00;1.40;;;;;;;;;;5023768;28;20035;-44
2022/09/08 15:33:57;;;;;;;3.53;1.38;;;;;;;;;;4976899;28;20403;-44
2022/09/08 15:36:35;;;;;;;4.18;1.27;;;;;;;;;;4977157;28;20067;-44
2022/09/08 15:39:12;;;;;;;6.05;1.30;;;;;;;;;;4984375;28;20042;-44
2022/09/08 15:41:45;;;;;;;3.33;1.63;;;;;;;;;;4983844;28;20125;-43
2022/09/08 15:44:24;;;;;;;3.10;1.10;;;;;;;;;;4981654;28;20050;-45
2022/09/08 15:47:05;;;;;;;2.05;0.77;;;;;;;;;;4984870;28;20435;-42